sensor_id;sensor_type;location;lat;lon;timestamp;pressure;altitude;pressure_sealevel;temperature;humidity
41140;BME280;26881;48.784;9.192;2022-08-18T00:00:55;98316.78;;;21.28;70.64
41140;BME280;26881;48.784;9.192;2022-08-18T00:06:17;98307.00;;;21.12;73.99
41140;BME280;26881;48.784;9.192;2022-08-18T00:11:42;98304.31;;;20.96;72.10
41140;BME280;26881;48.784;9.192;2022-08-18T00:17:04;98313.75;;;20.82;74.29
41140;BME280;26881;48.784;9.192;2022-08-18T00:22:25;98308.19;;;20.67;74.93
41140;BME280;26881;48.784;9.192;2022-08-18T00:27:48;98313.50;;;20.59;74.23
41140;BME280;26881;48.784;9.192;2022-08-18T00:33:09;98304.16;;;20.55;75.87
41140;BME280;26881;48.784;9.192;2022-08-18T00:38:31;98295.00;;;20.49;75.29
41140;BME280;26881;48.784;9.192;2022-08-18T00:43:54;98296.25;;;20.37;76.45
41140;BME280;26881;48.784;9.192;2022-08-18T00:49:16;98294.47;;;20.46;75.12
41140;BME280;26881;48.784;9.192;2022-08-18T00:54:40;98287.53;;;20.45;73.88
41140;BME280;26881;48.784;9.192;2022-08-18T01:00:05;98283.44;;;20.58;73.08
41140;BME280;26881;48.784;9.192;2022-08-18T01:05:42;98273.75;;;20.49;74.39
41140;BME280;26881;48.784;9.192;2022-08-18T01:11:06;98268.44;;;20.49;73.97
41140;BME280;26881;48.784;9.192;2022-08-18T01:16:28;98261.53;;;20.56;75.70
41140;BME280;26881;48.784;9.192;2022-08-18T01:22:21;98257.28;;;20.46;77.82
41140;BME280;26881;48.784;9.192;2022-08-18T01:27:46;98249.00;;;20.49;76.76
41140;BME280;26881;48.784;9.192;2022-08-18T01:33:07;98227.09;;;20.47;77.69
41140;BME280;26881;48.784;9.192;2022-08-18T01:38:31;98217.53;;;20.28;78.40
41140;BME280;26881;48.784;9.192;2022-08-18T01:43:52;98210.59;;;20.27;77.37
41140;BME280;26881;48.784;9.192;2022-08-18T01:49:14;98210.75;;;20.25;76.94
41140;BME280;26881;48.784;9.192;2022-08-18T01:54:36;98200.44;;;20.22;76.80
41140;BME280;26881;48.784;9.192;2022-08-18T01:59:58;98190.84;;;20.21;76.09
41140;BME280;26881;48.784;9.192;2022-08-18T02:05:28;98195.44;;;20.11;76.59
41140;BME280;26881;48.784;9.192;2022-08-18T02:10:52;98209.03;;;20.08;76.08
41140;BME280;26881;48.784;9.192;2022-08-18T02:16:14;98186.81;;;20.17;75.09
41140;BME280;26881;48.784;9.192;2022-08-18T02:21:37;98192.44;;;20.06;76.75
41140;BME280;26881;48.784;9.192;2022-08-18T02:26:59;98187.81;;;20.16;75.20
41140;BME280;26881;48.784;9.192;2022-08-18T02:32:21;98194.03;;;20.33;73.60
41140;BME280;26881;48.784;9.192;2022-08-18T02:37:44;98186.53;;;20.36;72.43
41140;BME280;26881;48.784;9.192;2022-08-18T02:43:09;98190.03;;;20.37;72.61
41140;BME280;26881;48.784;9.192;2022-08-18T02:48:32;98188.56;;;20.42;73.54
41140;BME280;26881;48.784;9.192;2022-08-18T02:53:55;98190.50;;;20.32;73.64
41140;BME280;26881;48.784;9.192;2022-08-18T02:59:22;98195.03;;;20.40;74.04
41140;BME280;26881;48.784;9.192;2022-08-18T03:04:48;98187.88;;;20.40;74.32
41140;BME280;26881;48.784;9.192;2022-08-18T03:10:10;98192.88;;;20.35;73.43
41140;BME280;26881;48.784;9.192;2022-08-18T03:15:52;98181.22;;;20.36;73.56
41140;BME280;26881;48.784;9.192;2022-08-18T03:21:20;98177.84;;;20.18;73.96
41140;BME280;26881;48.784;9.192;2022-08-18T03:26:43;98186.81;;;20.17;74.30
41140;BME280;26881;48.784;9.192;2022-08-18T03:32:06;98172.88;;;20.23;73.44
41140;BME280;26881;48.784;9.192;2022-08-18T03:37:29;98185.69;;;20.28;73.28
41140;BME280;26881;48.784;9.192;2022-08-18T03:42:50;98178.34;;;20.13;73.11
41140;BME280;26881;48.784;9.192;2022-08-18T03:48:12;98162.56;;;20.04;73.36
41140;BME280;26881;48.784;9.192;2022-08-18T03:53:35;98166.50;;;19.99;73.20
41140;BME280;26881;48.784;9.192;2022-08-18T03:59:03;98163.75;;;20.17;73.28
41140;BME280;26881;48.784;9.192;2022-08-18T04:04:27;98161.59;;;20.13;74.12
41140;BME280;26881;48.784;9.192;2022-08-18T04:09:49;98155.69;;;19.93;75.29
41140;BME280;26881;48.784;9.192;2022-08-18T04:15:10;98170.94;;;19.83;76.44
41140;BME280;26881;48.784;9.192;2022-08-18T04:20:33;98172.09;;;19.80;76.99
41140;BME280;26881;48.784;9.192;2022-08-18T04:26:00;98177.19;;;19.73;77.07
41140;BME280;26881;48.784;9.192;2022-08-18T04:31:22;98184.06;;;19.84;76.21
41140;BME280;26881;48.784;9.192;2022-08-18T04:36:45;98186.03;;;19.82;76.37
41140;BME280;26881;48.784;9.192;2022-08-18T04:42:07;98175.63;;;19.97;76.30
41140;BME280;26881;48.784;9.192;2022-08-18T04:47:29;98190.38;;;19.91;76.73
41140;BME280;26881;48.784;9.192;2022-08-18T04:52:51;98197.88;;;19.96;76.62
41140;BME280;26881;48.784;9.192;2022-08-18T04:58:31;98207.69;;;20.04;76.10
41140;BME280;26881;48.784;9.192;2022-08-18T05:03:54;98209.50;;;20.03;76.12
41140;BME280;26881;48.784;9.192;2022-08-18T05:09:16;98208.75;;;20.19;75.58
41140;BME280;26881;48.784;9.192;2022-08-18T05:14:44;98207.31;;;20.33;73.72
41140;BME280;26881;48.784;9.192;2022-08-18T05:20:07;98209.81;;;20.42;72.88
41140;BME280;26881;48.784;9.192;2022-08-18T05:25:29;98200.81;;;20.35;74.05
41140;BME280;26881;48.784;9.192;2022-08-18T05:30:51;98198.16;;;20.35;72.97
41140;BME280;26881;48.784;9.192;2022-08-18T05:41:52;98193.50;;;20.29;74.37
41140;BME280;26881;48.784;9.192;2022-08-18T05:47:27;98193.88;;;20.42;73.24
41140;BME280;26881;48.784;9.192;2022-08-18T05:52:55;98192.22;;;20.50;73.08
41140;BME280;26881;48.784;9.192;2022-08-18T05:58:30;98179.81;;;20.58;71.61
41140;BME280;26881;48.784;9.192;2022-08-18T06:04:02;98192.63;;;20.71;71.31
41140;BME280;26881;48.784;9.192;2022-08-18T06:09:39;98204.06;;;20.72;70.85
41140;BME280;26881;48.784;9.192;2022-08-18T06:27:13;98229.00;;;20.79;70.94
41140;BME280;26881;48.784;9.192;2022-08-18T06:39:00;98224.22;;;20.99;71.27
41140;BME280;26881;48.784;9.192;2022-08-18T06:44:46;98207.91;;;21.02;71.22
41140;BME280;26881;48.784;9.192;2022-08-18T06:50:26;98190.47;;;21.08;71.25
41140;BME280;26881;48.784;9.192;2022-08-18T06:55:50;98197.59;;;21.07;70.28
41140;BME280;26881;48.784;9.192;2022-08-18T07:01:16;98199.28;;;21.08;70.39
41140;BME280;26881;48.784;9.192;2022-08-18T07:06:38;98197.97;;;21.12;70.74
41140;BME280;26881;48.784;9.192;2022-08-18T07:12:08;98214.91;;;21.19;70.63
41140;BME280;26881;48.784;9.192;2022-08-18T07:17:35;98223.38;;;21.23;70.21
41140;BME280;26881;48.784;9.192;2022-08-18T07:23:04;98240.66;;;21.27;69.26
41140;BME280;26881;48.784;9.192;2022-08-18T07:28:33;98249.47;;;21.36;69.47
41140;BME280;26881;48.784;9.192;2022-08-18T07:34:02;98249.47;;;21.36;69.48
41140;BME280;26881;48.784;9.192;2022-08-18T07:39:42;98255.78;;;21.35;69.85
41140;BME280;26881;48.784;9.192;2022-08-18T07:45:26;98268.78;;;21.38;68.88
41140;BME280;26881;48.784;9.192;2022-08-18T07:50:59;98263.97;;;21.41;68.84
41140;BME280;26881;48.784;9.192;2022-08-18T08:07:55;98268.47;;;21.41;67.93
41140;BME280;26881;48.784;9.192;2022-08-18T08:13:29;98265.94;;;21.39;67.70
41140;BME280;26881;48.784;9.192;2022-08-18T08:25:19;98240.53;;;21.45;67.25
41140;BME280;26881;48.784;9.192;2022-08-18T08:37:09;98224.53;;;21.53;67.21
41140;BME280;26881;48.784;9.192;2022-08-18T08:42:38;98222.88;;;21.52;67.22
41140;BME280;26881;48.784;9.192;2022-08-18T08:48:16;98213.72;;;21.55;67.41
41140;BME280;26881;48.784;9.192;2022-08-18T08:53:54;98211.91;;;21.55;67.31
41140;BME280;26881;48.784;9.192;2022-08-18T08:59:21;98201.25;;;21.63;67.14
41140;BME280;26881;48.784;9.192;2022-08-18T09:04:53;98231.50;;;21.71;67.33
41140;BME280;26881;48.784;9.192;2022-08-18T09:16:23;98197.06;;;21.77;67.54
41140;BME280;26881;48.784;9.192;2022-08-18T09:28:13;98179.66;;;21.98;67.33
41140;BME280;26881;48.784;9.192;2022-08-18T09:39:32;98197.56;;;22.12;67.20
41140;BME280;26881;48.784;9.192;2022-08-18T09:51:21;98211.72;;;22.21;68.41
41140;BME280;26881;48.784;9.192;2022-08-18T10:08:24;98213.13;;;22.40;68.38
41140;BME280;26881;48.784;9.192;2022-08-18T10:14:08;98212.41;;;22.54;67.70
41140;BME280;26881;48.784;9.192;2022-08-18T10:20:08;98192.47;;;22.65;67.47
41140;BME280;26881;48.784;9.192;2022-08-18T10:25:47;98198.59;;;22.73;67.03
41140;BME280;26881;48.784;9.192;2022-08-18T10:31:09;98171.81;;;22.67;67.19
41140;BME280;26881;48.784;9.192;2022-08-18T10:36:45;98147.00;;;22.66;66.85
41140;BME280;26881;48.784;9.192;2022-08-18T10:47:35;98129.31;;;22.88;65.52
41140;BME280;26881;48.784;9.192;2022-08-18T11:05:17;98115.53;;;23.08;63.86
41140;BME280;26881;48.784;9.192;2022-08-18T11:10:41;98112.22;;;23.21;63.48
41140;BME280;26881;48.784;9.192;2022-08-18T11:17:01;98125.56;;;23.21;63.12
41140;BME280;26881;48.784;9.192;2022-08-18T11:22:30;98117.28;;;23.30;62.83
41140;BME280;26881;48.784;9.192;2022-08-18T11:27:56;98117.91;;;23.32;61.92
41140;BME280;26881;48.784;9.192;2022-08-18T11:33:19;98115.44;;;23.31;62.07
41140;BME280;26881;48.784;9.192;2022-08-18T11:38:55;98120.31;;;23.42;61.62
41140;BME280;26881;48.784;9.192;2022-08-18T11:44:21;98118.28;;;23.44;60.99
41140;BME280;26881;48.784;9.192;2022-08-18T11:50:08;98111.75;;;23.47;61.27
41140;BME280;26881;48.784;9.192;2022-08-18T11:55:31;98096.47;;;23.55;60.89
41140;BME280;26881;48.784;9.192;2022-08-18T12:00:56;98087.66;;;23.55;61.30
41140;BME280;26881;48.784;9.192;2022-08-18T12:06:26;98084.72;;;23.50;60.95
41140;BME280;26881;48.784;9.192;2022-08-18T12:11:54;98071.00;;;23.53;59.63
41140;BME280;26881;48.784;9.192;2022-08-18T12:17:18;98071.25;;;23.58;58.02
41140;BME280;26881;48.784;9.192;2022-08-18T12:22:42;98066.38;;;23.62;58.34
41140;BME280;26881;48.784;9.192;2022-08-18T12:28:04;98066.84;;;23.80;58.50
41140;BME280;26881;48.784;9.192;2022-08-18T12:33:32;98065.25;;;23.86;59.05
41140;BME280;26881;48.784;9.192;2022-08-18T12:39:08;98051.53;;;23.89;56.73
41140;BME280;26881;48.784;9.192;2022-08-18T12:44:30;98054.66;;;23.92;56.13
41140;BME280;26881;48.784;9.192;2022-08-18T12:49:52;98047.38;;;24.01;56.07
41140;BME280;26881;48.784;9.192;2022-08-18T12:55:14;98023.81;;;24.11;55.27
41140;BME280;26881;48.784;9.192;2022-08-18T13:00:43;98014.50;;;24.29;55.63
41140;BME280;26881;48.784;9.192;2022-08-18T13:06:05;98004.28;;;24.32;55.53
41140;BME280;26881;48.784;9.192;2022-08-18T13:11:28;97998.94;;;24.32;54.69
41140;BME280;26881;48.784;9.192;2022-08-18T13:16:50;97969.72;;;24.31;54.81
41140;BME280;26881;48.784;9.192;2022-08-18T13:22:15;97967.06;;;24.31;54.51
41140;BME280;26881;48.784;9.192;2022-08-18T13:27:37;97978.78;;;24.30;54.83
41140;BME280;26881;48.784;9.192;2022-08-18T13:33:05;97975.94;;;24.38;55.10
41140;BME280;26881;48.784;9.192;2022-08-18T13:38:49;97976.50;;;24.48;55.22
41140;BME280;26881;48.784;9.192;2022-08-18T13:44:15;97982.06;;;24.53;53.97
41140;BME280;26881;48.784;9.192;2022-08-18T13:49:40;97975.97;;;24.59;52.97
41140;BME280;26881;48.784;9.192;2022-08-18T13:55:19;97966.63;;;24.49;53.19
41140;BME280;26881;48.784;9.192;2022-08-18T14:00:41;97961.97;;;24.57;53.23
41140;BME280;26881;48.784;9.192;2022-08-18T14:06:03;97947.00;;;24.70;52.95
41140;BME280;26881;48.784;9.192;2022-08-18T14:11:31;97962.34;;;24.89;51.64
41140;BME280;26881;48.784;9.192;2022-08-18T14:16:54;97966.13;;;25.01;51.31
41140;BME280;26881;48.784;9.192;2022-08-18T14:22:17;97955.44;;;25.01;51.94
41140;BME280;26881;48.784;9.192;2022-08-18T14:27:57;97954.59;;;25.01;52.01
41140;BME280;26881;48.784;9.192;2022-08-18T14:33:27;97950.53;;;25.12;50.84
41140;BME280;26881;48.784;9.192;2022-08-18T14:39:09;97953.81;;;25.07;50.99
41140;BME280;26881;48.784;9.192;2022-08-18T14:44:31;97956.66;;;24.99;50.80
41140;BME280;26881;48.784;9.192;2022-08-18T14:49:54;97954.94;;;24.91;51.38
41140;BME280;26881;48.784;9.192;2022-08-18T14:55:18;97953.31;;;24.90;51.58
41140;BME280;26881;48.784;9.192;2022-08-18T15:00:39;97961.53;;;24.89;50.80
41140;BME280;26881;48.784;9.192;2022-08-18T15:06:14;97956.66;;;24.99;50.82
41140;BME280;26881;48.784;9.192;2022-08-18T15:11:43;97959.97;;;25.08;50.22
41140;BME280;26881;48.784;9.192;2022-08-18T15:17:06;97954.41;;;25.02;50.15
41140;BME280;26881;48.784;9.192;2022-08-18T15:22:41;97966.97;;;25.02;49.75
41140;BME280;26881;48.784;9.192;2022-08-18T15:28:43;97963.59;;;24.93;50.26
41140;BME280;26881;48.784;9.192;2022-08-18T15:34:06;97968.13;;;24.93;50.70
41140;BME280;26881;48.784;9.192;2022-08-18T15:39:33;97966.69;;;24.90;50.10
41140;BME280;26881;48.784;9.192;2022-08-18T15:44:55;97959.03;;;24.87;50.56
41140;BME280;26881;48.784;9.192;2022-08-18T15:50:17;97956.13;;;24.82;51.04
41140;BME280;26881;48.784;9.192;2022-08-18T15:55:46;97950.41;;;24.85;51.21
41140;BME280;26881;48.784;9.192;2022-08-18T16:01:12;97941.75;;;24.83;51.43
41140;BME280;26881;48.784;9.192;2022-08-18T16:06:53;97932.91;;;24.89;51.14
41140;BME280;26881;48.784;9.192;2022-08-18T16:12:16;97930.66;;;24.86;51.17
41140;BME280;26881;48.784;9.192;2022-08-18T16:17:38;97930.66;;;24.86;51.34
41140;BME280;26881;48.784;9.192;2022-08-18T16:23:00;97943.63;;;24.89;50.95
41140;BME280;26881;48.784;9.192;2022-08-18T16:28:21;97948.97;;;24.83;50.93
41140;BME280;26881;48.784;9.192;2022-08-18T16:33:56;97953.00;;;24.72;51.67
41140;BME280;26881;48.784;9.192;2022-08-18T16:39:18;97947.78;;;24.64;51.50
41140;BME280;26881;48.784;9.192;2022-08-18T16:44:40;97958.88;;;24.60;51.25
41140;BME280;26881;48.784;9.192;2022-08-18T16:50:03;97955.16;;;24.55;51.27
41140;BME280;26881;48.784;9.192;2022-08-18T16:55:26;97956.56;;;24.51;51.75
41140;BME280;26881;48.784;9.192;2022-08-18T17:00:48;97962.84;;;24.43;54.30
41140;BME280;26881;48.784;9.192;2022-08-18T17:06:33;97966.28;;;24.37;55.41
41140;BME280;26881;48.784;9.192;2022-08-18T17:12:07;97959.25;;;24.29;56.26
41140;BME280;26881;48.784;9.192;2022-08-18T17:17:29;97968.47;;;24.27;56.93
41140;BME280;26881;48.784;9.192;2022-08-18T17:22:52;97960.81;;;24.24;57.06
41140;BME280;26881;48.784;9.192;2022-08-18T17:28:14;97961.41;;;24.19;57.14
41140;BME280;26881;48.784;9.192;2022-08-18T17:33:44;97972.66;;;24.14;57.30
41140;BME280;26881;48.784;9.192;2022-08-18T17:39:07;97968.75;;;24.10;57.79
41140;BME280;26881;48.784;9.192;2022-08-18T17:44:40;97974.09;;;24.10;57.59
41140;BME280;26881;48.784;9.192;2022-08-18T17:50:24;97976.50;;;24.05;57.91
41140;BME280;26881;48.784;9.192;2022-08-18T17:56:19;97984.72;;;24.04;58.16
41140;BME280;26881;48.784;9.192;2022-08-18T18:01:41;97979.31;;;23.97;58.12
41140;BME280;26881;48.784;9.192;2022-08-18T18:07:04;97991.38;;;23.93;58.72
41140;BME280;26881;48.784;9.192;2022-08-18T18:12:29;97983.94;;;23.88;58.85
41140;BME280;26881;48.784;9.192;2022-08-18T18:17:51;97994.19;;;23.85;59.04
41140;BME280;26881;48.784;9.192;2022-08-18T18:23:16;98004.22;;;23.83;59.21
41140;BME280;26881;48.784;9.192;2022-08-18T18:28:39;98006.00;;;23.75;59.45
41140;BME280;26881;48.784;9.192;2022-08-18T18:34:04;98009.50;;;23.76;59.39
41140;BME280;26881;48.784;9.192;2022-08-18T18:39:53;98013.16;;;23.75;59.06
41140;BME280;26881;48.784;9.192;2022-08-18T18:45:25;98026.34;;;23.76;59.12
41140;BME280;26881;48.784;9.192;2022-08-18T18:50:53;98028.72;;;23.71;59.37
41140;BME280;26881;48.784;9.192;2022-08-18T18:56:42;98023.56;;;23.70;59.10
41140;BME280;26881;48.784;9.192;2022-08-18T19:02:30;98026.59;;;23.67;59.47
41140;BME280;26881;48.784;9.192;2022-08-18T19:09:35;98029.00;;;23.62;59.42
41140;BME280;26881;48.784;9.192;2022-08-18T19:14:28;98034.34;;;23.62;59.00
41140;BME280;26881;48.784;9.192;2022-08-18T19:19:58;98038.41;;;23.58;58.95
41140;BME280;26881;48.784;9.192;2022-08-18T19:25:34;98046.97;;;23.53;59.05
41140;BME280;26881;48.784;9.192;2022-08-18T19:31:25;98044.84;;;23.48;60.08
41140;BME280;26881;48.784;9.192;2022-08-18T19:37:07;98037.41;;;23.44;59.20
41140;BME280;26881;48.784;9.192;2022-08-18T19:42:51;98038.44;;;23.43;58.86
41140;BME280;26881;48.784;9.192;2022-08-18T19:48:26;98048.47;;;23.41;58.60
41140;BME280;26881;48.784;9.192;2022-08-18T20:16:24;98068.69;;;23.20;59.42
41140;BME280;26881;48.784;9.192;2022-08-18T20:22:09;98077.69;;;23.19;59.74
41140;BME280;26881;48.784;9.192;2022-08-18T20:27:42;98078.06;;;23.16;59.24
41140;BME280;26881;48.784;9.192;2022-08-18T20:33:09;98089.94;;;23.13;59.16
41140;BME280;26881;48.784;9.192;2022-08-18T20:44:16;98076.13;;;23.10;59.76
41140;BME280;26881;48.784;9.192;2022-08-18T21:02:07;98082.38;;;23.02;59.35
41140;BME280;26881;48.784;9.192;2022-08-18T21:07:31;98075.41;;;23.01;59.23
41140;BME280;26881;48.784;9.192;2022-08-18T21:13:00;98091.28;;;22.94;59.56
41140;BME280;26881;48.784;9.192;2022-08-18T21:18:23;98094.47;;;22.90;59.11
41140;BME280;26881;48.784;9.192;2022-08-18T21:23:51;98105.97;;;22.90;59.32
41140;BME280;26881;48.784;9.192;2022-08-18T21:29:14;98110.00;;;22.86;59.62
41140;BME280;26881;48.784;9.192;2022-08-18T21:34:39;98107.03;;;22.81;59.93
41140;BME280;26881;48.784;9.192;2022-08-18T21:40:06;98105.56;;;22.79;60.35
41140;BME280;26881;48.784;9.192;2022-08-18T21:45:28;98106.59;;;22.78;60.53
41140;BME280;26881;48.784;9.192;2022-08-18T21:50:54;98128.25;;;22.75;60.20
41140;BME280;26881;48.784;9.192;2022-08-18T21:56:29;98130.28;;;22.72;60.24
41140;BME280;26881;48.784;9.192;2022-08-18T22:01:55;98135.44;;;22.74;60.46
41140;BME280;26881;48.784;9.192;2022-08-18T22:07:17;98135.81;;;22.71;60.21
41140;BME280;26881;48.784;9.192;2022-08-18T22:12:57;98137.44;;;22.72;59.87
41140;BME280;26881;48.784;9.192;2022-08-18T22:18:38;98131.81;;;22.67;60.24
41140;BME280;26881;48.784;9.192;2022-08-18T22:24:00;98128.50;;;22.65;59.58
41140;BME280;26881;48.784;9.192;2022-08-18T22:29:55;98118.53;;;22.59;59.84
41140;BME280;26881;48.784;9.192;2022-08-18T22:35:26;98128.59;;;22.57;59.66
41140;BME280;26881;48.784;9.192;2022-08-18T22:40:48;98135.72;;;22.56;59.78
41140;BME280;26881;48.784;9.192;2022-08-18T22:46:10;98138.09;;;22.51;59.79
41140;BME280;26881;48.784;9.192;2022-08-18T22:51:41;98147.28;;;22.48;59.60
41140;BME280;26881;48.784;9.192;2022-08-18T22:57:03;98145.50;;;22.41;59.44
41140;BME280;26881;48.784;9.192;2022-08-18T23:02:27;98137.31;;;22.42;60.06
41140;BME280;26881;48.784;9.192;2022-08-18T23:07:49;98147.34;;;22.40;59.76
41140;BME280;26881;48.784;9.192;2022-08-18T23:13:11;98155.69;;;22.37;60.27
41140;BME280;26881;48.784;9.192;2022-08-18T23:18:32;98153.00;;;22.37;59.70
41140;BME280;26881;48.784;9.192;2022-08-18T23:23:55;98155.53;;;22.30;59.86
41140;BME280;26881;48.784;9.192;2022-08-18T23:29:19;98151.91;;;22.32;60.25
41140;BME280;26881;48.784;9.192;2022-08-18T23:34:41;98146.41;;;22.33;60.02
41140;BME280;26881;48.784;9.192;2022-08-18T23:40:03;98150.88;;;22.33;60.45
41140;BME280;26881;48.784;9.192;2022-08-18T23:45:25;98137.44;;;22.26;60.61
41140;BME280;26881;48.784;9.192;2022-08-18T23:50:48;98139.47;;;22.24;60.40
41140;BME280;26881;48.784;9.192;2022-08-18T23:56:10;98136.28;;;22.20;60.67
